Time;durP1;ratioP1;P1;durP2;ratioP2;P2;SDS_P1;SDS_P2;PMS_P1;PMS_P2;Temp;Humidity;BMP_temperature;BMP_pressure;BME280_temperature;BME280_humidity;BME280_pressure;Samples;Min_cycle;Max_cycle;Signal;HPM_P1;HPM_P2
2022/04/27 00:01:14;;;;;;;18.90;12.07;;;;;;;4.17;85.82;102397.44;6185330;23;20330;-80
2022/04/27 00:03:40;;;;;;;17.50;11.27;;;;;;;3.88;85.81;102343.25;6185635;23;20000;-78
2022/04/27 00:06:06;;;;;;;22.10;12.30;;;;;;;3.96;86.43;102367.00;6185754;23;20059;-90
2022/04/27 00:08:32;;;;;;;19.80;12.20;;;;;;;3.73;86.13;102331.47;6185900;23;20080;-88
2022/04/27 00:11:00;;;;;;;18.38;11.38;;;;;;;3.99;86.31;102395.06;6184875;22;20454;-81
2022/04/27 00:13:26;;;;;;;19.70;11.90;;;;;;;3.95;85.99;102376.38;6185198;23;20001;-85
2022/04/27 00:15:51;;;;;;;20.88;12.70;;;;;;;3.58;86.43;102339.28;6185020;23;20031;-87
2022/04/27 00:18:16;;;;;;;19.55;13.13;;;;;;;3.13;86.58;102259.69;6185544;23;20005;-88
2022/04/27 00:20:42;;;;;;;21.45;12.60;;;;;;;3.28;86.88;102292.75;6185675;23;20430;-88
2022/04/27 00:23:08;;;;;;;20.27;13.27;;;;;;;3.61;86.82;102349.47;6185556;23;20073;-86
2022/04/27 00:25:34;;;;;;;18.40;12.50;;;;;;;3.66;86.87;102373.28;6185523;23;20085;-89
2022/04/27 00:27:59;;;;;;;19.92;12.98;;;;;;;3.68;87.16;102379.22;6158948;23;20080;-87
2022/04/27 00:30:24;;;;;;;20.98;13.00;;;;;;;3.62;87.56;102376.69;6158469;23;20012;-88
2022/04/27 00:32:50;;;;;;;18.92;12.80;;;;;;;3.58;87.18;102381.00;6186865;23;20001;-87
2022/04/27 00:35:15;;;;;;;20.45;12.82;;;;;;;3.34;87.42;102345.44;6186963;23;20005;-87
2022/04/27 00:37:40;;;;;;;21.48;12.55;;;;;;;3.00;87.44;102287.03;6186884;23;20084;-88
2022/04/27 00:40:06;;;;;;;18.15;12.80;;;;;;;3.41;87.36;102364.97;6186609;23;20056;-85
2022/04/27 00:42:31;;;;;;;20.52;12.48;;;;;;;3.36;87.36;102362.47;6186585;23;20060;-80
2022/04/27 00:44:57;;;;;;;19.40;12.85;;;;;;;3.34;87.61;102358.22;6186569;23;20012;-79
2022/04/27 00:47:22;;;;;;;21.20;13.27;;;;;;;3.51;87.71;102383.63;6187664;23;20033;-87
2022/04/27 00:49:50;;;;;;;21.40;13.77;;;;;;;3.25;88.00;102346.41;6187224;23;20001;-87
2022/04/27 00:52:16;;;;;;;19.85;12.55;;;;;;;3.13;87.73;102326.91;6186838;23;20032;-85
2022/04/27 00:54:44;;;;;;;22.70;13.88;;;;;;;3.16;87.34;102339.66;6187101;23;20012;-79
2022/04/27 00:57:10;;;;;;;21.40;13.90;;;;;;;3.40;87.90;102383.72;6186523;23;20332;-80
2022/04/27 00:59:39;;;;;;;23.40;13.95;;;;;;;3.18;87.78;102367.72;6186222;23;20016;-87
2022/04/27 01:02:05;;;;;;;20.80;13.10;;;;;;;3.36;88.32;102394.81;6186196;23;20013;-80
2022/04/27 01:04:33;;;;;;;20.75;14.30;;;;;;;3.33;88.17;102399.94;6186515;23;20426;-81
2022/04/27 01:06:59;;;;;;;23.23;13.48;;;;;;;3.32;88.41;102399.09;6186787;23;20002;-81
2022/04/27 01:09:25;;;;;;;26.10;15.25;;;;;;;3.38;89.34;102406.72;6186562;23;20005;-79
2022/04/27 01:11:51;;;;;;;22.23;13.82;;;;;;;3.12;89.06;102368.59;6186437;23;20044;-79
2022/04/27 01:14:17;;;;;;;23.13;15.57;;;;;;;3.39;89.81;102412.66;6186471;23;20039;-79
2022/04/27 01:16:42;;;;;;;25.20;15.05;;;;;;;3.09;89.99;102360.97;6186769;23;20001;-79
2022/04/27 01:19:08;;;;;;;28.48;15.68;;;;;;;3.40;90.94;102394.78;6186833;23;20013;-79
2022/04/27 01:21:33;;;;;;;25.88;15.45;;;;;;;3.39;89.62;102407.56;6186671;23;20366;-79
2022/04/27 01:23:59;;;;;;;22.52;15.30;;;;;;;3.39;89.99;102416.06;6186906;23;20001;-79
2022/04/27 01:26:25;;;;;;;26.95;15.82;;;;;;;3.16;89.97;102377.09;6186954;23;20453;-79
2022/04/27 01:28:50;;;;;;;22.02;14.50;;;;;;;3.30;89.53;102411.03;6160317;23;20009;-79
2022/04/27 01:31:16;;;;;;;24.50;15.57;;;;;;;3.26;89.72;102416.19;6159556;23;20446;-78
2022/04/27 01:33:41;;;;;;;22.40;15.25;;;;;;;3.15;89.89;102416.25;6186241;23;20005;-79
2022/04/27 01:36:08;;;;;;;22.60;14.80;;;;;;;3.06;89.86;102412.06;6186581;23;20013;-79
2022/04/27 01:38:34;;;;;;;23.70;15.05;;;;;;;3.05;90.98;102404.41;6186465;23;20060;-81
2022/04/27 01:41:00;;;;;;;28.17;15.00;;;;;;;2.84;90.22;102379.84;6186755;23;20016;-79
2022/04/27 01:43:25;;;;;;;24.50;15.80;;;;;;;2.99;90.43;102412.94;6185929;23;20009;-79
2022/04/27 01:45:52;;;;;;;23.27;15.18;;;;;;;2.94;90.18;102414.66;6186121;23;20423;-79
2022/04/27 01:48:17;;;;;;;24.88;16.20;;;;;;;2.88;90.35;102414.72;6185889;23;20008;-79
2022/04/27 01:50:42;;;;;;;23.67;15.82;;;;;;;2.75;90.38;102401.19;6160002;23;20012;-81
2022/04/27 01:55:52;;;;;;;23.75;15.63;;;;;;;2.78;90.68;102424.13;6186407;23;20394;-79
2022/04/27 01:58:18;;;;;;;24.90;15.60;;;;;;;2.52;90.46;102385.13;6185837;23;20024;-78
2022/04/27 02:00:46;;;;;;;22.85;15.85;;;;;;;2.25;90.36;102347.84;6185923;23;20084;-85
2022/04/27 02:03:13;;;;;;;23.63;15.90;;;;;;;2.66;91.06;102421.63;6186089;23;20051;-82
2022/04/27 02:05:39;;;;;;;22.92;15.00;;;;;;;2.61;90.45;102423.34;6186094;23;20008;-79
2022/04/27 02:08:04;;;;;;;22.13;14.93;;;;;;;2.26;90.15;102380.13;6186432;23;20095;-78
2022/04/27 02:10:29;;;;;;;22.60;16.00;;;;;;;2.08;90.69;102347.09;6186242;23;20013;-73
2022/04/27 02:12:55;;;;;;;25.30;15.57;;;;;;;2.28;90.83;102394.59;6186560;23;20025;-81
2022/04/27 02:15:20;;;;;;;23.25;15.43;;;;;;;2.46;91.00;102438.69;6186362;23;20001;-80
2022/04/27 02:17:45;;;;;;;23.10;14.82;;;;;;;2.00;90.65;102367.50;6185695;23;20026;-79
2022/04/27 02:20:11;;;;;;;25.58;16.00;;;;;;;2.33;90.85;102416.66;6186513;23;20036;-79
2022/04/27 02:22:36;;;;;;;26.33;15.25;;;;;;;2.42;91.68;102432.75;6159194;23;20005;-82
2022/04/27 02:25:02;;;;;;;22.88;15.00;;;;;;;2.23;91.63;102400.53;6186428;23;20008;-79
2022/04/27 02:27:28;;;;;;;22.65;15.30;;;;;;;2.43;91.76;102433.59;6186388;23;20370;-80
2022/04/27 02:29:55;;;;;;;23.90;15.00;;;;;;;1.93;91.72;102353.06;6186341;23;20001;-81
2022/04/27 02:32:20;;;;;;;28.85;16.60;;;;;;;2.52;92.90;102442.06;6185617;23;20012;-82
2022/04/27 02:34:55;;;;;;;25.08;15.43;;;;;;;1.99;92.86;102348.81;6185741;22;20331;-79
2022/04/27 02:37:23;;;;;;;28.38;16.73;;;;;;;2.07;92.88;102355.59;6185922;23;20008;-81
2022/04/27 02:40:04;;;;;;;25.52;17.08;;;;;;;1.75;92.44;102284.34;6159575;23;20001;-80
2022/04/27 02:42:36;;;;;;;28.95;16.33;;;;;;;2.27;92.43;102359.75;6185549;23;20427;-79
2022/04/27 02:45:04;;;;;;;28.13;16.92;;;;;;;2.63;92.39;102426.72;6185442;23;20005;-78
2022/04/27 02:47:30;;;;;;;25.98;16.50;;;;;;;2.77;92.40;102447.94;6185862;23;20032;-78
2022/04/27 02:52:39;;;;;;;25.38;16.52;;;;;;;2.55;92.32;102436.94;6185731;23;20055;-78
2022/04/27 02:55:05;;;;;;;25.30;16.23;;;;;;;2.24;92.21;102385.25;6185761;23;20009;-78
2022/04/27 02:57:30;;;;;;;23.10;16.27;;;;;;;2.58;91.87;102454.81;6185990;23;20005;-79
2022/04/27 02:59:56;;;;;;;25.83;15.48;;;;;;;2.57;92.96;102445.47;6185670;23;20009;-78
2022/04/27 03:02:21;;;;;;;23.95;15.35;;;;;;;2.25;92.78;102402.22;6185681;23;20005;-79
2022/04/27 03:04:46;;;;;;;27.90;16.65;;;;;;;2.25;92.66;102414.13;6185501;23;20051;-79
2022/04/27 03:07:12;;;;;;;23.98;15.15;;;;;;;2.46;93.48;102456.53;6185685;23;20005;-79
2022/04/27 03:09:37;;;;;;;26.08;15.60;;;;;;;2.36;92.71;102439.56;6185983;23;20319;-79
2022/04/27 03:12:03;;;;;;;24.25;15.48;;;;;;;1.99;92.16;102399.75;6159379;23;20358;-79
2022/04/27 03:14:31;;;;;;;23.73;15.70;;;;;;;2.26;92.21;102456.59;6185801;23;20012;-79
2022/04/27 03:16:57;;;;;;;25.20;14.30;;;;;;;1.93;92.40;102401.47;6185323;23;20001;-79
2022/04/27 03:19:23;;;;;;;24.73;14.93;;;;;;;1.92;92.75;102415.06;6185749;23;20012;-79
2022/04/27 03:21:48;;;;;;;26.67;15.00;;;;;;;1.83;93.03;102397.25;6185829;23;20009;-79
2022/04/27 03:24:14;;;;;;;25.25;15.98;;;;;;;1.66;92.91;102376.88;6185841;23;20079;-81
2022/04/27 03:26:39;;;;;;;23.80;15.23;;;;;;;2.08;92.94;102457.50;6185583;23;20028;-81
2022/04/27 03:29:05;;;;;;;25.67;15.98;;;;;;;2.08;93.20;102456.66;6184837;23;20005;-79
2022/04/27 03:31:30;;;;;;;25.30;15.60;;;;;;;1.83;93.36;102430.34;6185979;23;20005;-79
2022/04/27 03:33:56;;;;;;;23.02;15.02;;;;;;;2.05;93.41;102462.59;6185157;23;20312;-80
2022/04/27 03:36:22;;;;;;;25.50;15.70;;;;;;;1.97;92.67;102462.63;6185110;23;20067;-80
2022/04/27 03:38:50;;;;;;;24.85;15.18;;;;;;;1.73;92.84;102421.88;6185915;23;20011;-79
2022/04/27 03:41:22;;;;;;;26.20;15.95;;;;;;;1.98;93.67;102464.31;6185684;23;20092;-80
2022/04/27 03:43:49;;;;;;;23.88;15.43;;;;;;;1.62;93.63;102410.84;6185722;23;20008;-79
2022/04/27 03:46:15;;;;;;;27.40;15.63;;;;;;;1.72;93.40;102428.66;6185288;23;20056;-79
2022/04/27 03:48:41;;;;;;;23.45;15.40;;;;;;;1.79;93.14;102441.41;6185115;23;20043;-80
2022/04/27 03:51:07;;;;;;;24.85;15.77;;;;;;;1.59;93.69;102426.13;6185427;23;20001;-79
2022/04/27 03:53:32;;;;;;;25.60;15.23;;;;;;;1.84;93.39;102477.91;6185762;23;20001;-79
2022/04/27 03:55:57;;;;;;;21.85;14.65;;;;;;;1.52;93.39;102429.53;6185698;23;20028;-79
2022/04/27 03:58:23;;;;;;;24.73;15.13;;;;;;;1.61;93.78;102455.84;6159157;23;20515;-80
2022/04/27 04:00:48;;;;;;;25.58;16.30;;;;;;;1.81;93.45;102483.00;6185071;23;20002;-79
2022/04/27 04:03:14;;;;;;;25.45;15.15;;;;;;;1.79;93.60;102482.16;6185437;23;20422;-79
2022/04/27 04:05:39;;;;;;;24.45;15.57;;;;;;;1.49;93.72;102435.47;6184556;23;20001;-82
2022/04/27 04:08:05;;;;;;;27.90;15.63;;;;;;;1.75;93.56;102483.00;6186725;23;20031;-79
2022/04/27 04:10:31;;;;;;;26.00;15.68;;;;;;;1.74;93.81;102484.69;6187314;23;20415;-80
2022/04/27 04:12:56;;;;;;;26.38;14.55;;;;;;;1.58;93.47;102463.47;6187135;23;20151;-80
2022/04/27 04:15:21;;;;;;;24.75;14.73;;;;;;;1.73;93.42;102486.38;6186782;23;19997;-79
2022/04/27 04:17:47;;;;;;;29.77;15.85;;;;;;;1.77;93.89;102501.66;6187284;23;20048;-79
2022/04/27 04:20:14;;;;;;;27.25;15.63;;;;;;;1.77;93.85;102500.00;6160682;23;20005;-80
2022/04/27 04:22:40;;;;;;;24.88;16.17;;;;;;;1.75;93.60;102503.38;6187394;23;20015;-80
2022/04/27 04:30:34;;;;;;;28.35;15.75;;;;;;;1.78;93.45;102503.38;6187529;23;20075;-81
2022/04/27 04:33:00;;;;;;;27.20;16.02;;;;;;;1.82;93.50;102505.91;6186987;23;20327;-81
2022/04/27 04:35:25;;;;;;;28.27;15.85;;;;;;;0.67;93.61;102318.34;6186781;23;20031;-82
2022/04/27 04:37:50;;;;;;;29.50;16.25;;;;;;;1.82;93.42;102505.91;6160527;23;20012;-80
2022/04/27 04:40:16;;;;;;;25.35;15.63;;;;;;;1.68;93.64;102487.25;6187330;23;20005;-79
2022/04/27 04:42:41;;;;;;;30.60;16.35;;;;;;;1.90;93.37;102519.50;6186623;23;20008;-79
2022/04/27 04:45:07;;;;;;;24.52;15.13;;;;;;;1.67;93.49;102478.75;6187227;23;20304;-80
2022/04/27 04:47:32;;;;;;;28.42;16.27;;;;;;;1.96;93.11;102518.66;6187317;23;20072;-80
2022/04/27 04:49:58;;;;;;;25.40;15.20;;;;;;;2.00;92.77;102526.31;6186657;23;20071;-80
2022/04/27 04:52:23;;;;;;;24.80;15.65;;;;;;;2.04;92.71;102522.03;6186820;23;20001;-80
2022/04/27 04:54:48;;;;;;;28.13;16.63;;;;;;;2.10;92.78;102529.69;6160237;23;20366;-80
2022/04/27 04:57:14;;;;;;;24.65;14.65;;;;;;;2.14;92.64;102533.94;6186507;23;19997;-79
2022/04/27 04:59:40;;;;;;;25.60;14.55;;;;;;;2.12;92.51;102514.41;6187082;23;20009;-81
2022/04/27 05:02:05;;;;;;;25.98;15.50;;;;;;;2.30;92.40;102539.88;6186763;23;20342;-80
2022/04/27 05:04:30;;;;;;;27.77;15.07;;;;;;;2.07;92.82;102473.66;6186900;23;20013;-79
2022/04/27 05:06:56;;;;;;;25.83;14.93;;;;;;;2.26;91.90;102494.81;6185470;23;20009;-83
2022/04/27 05:09:21;;;;;;;26.20;14.95;;;;;;;2.09;92.09;102459.19;6186438;23;20080;-81
2022/04/27 05:11:47;;;;;;;24.98;15.07;;;;;;;2.43;91.83;102505.84;6186954;23;19997;-81
2022/04/27 05:14:13;;;;;;;25.13;15.20;;;;;;;2.63;91.80;102526.19;6186962;23;20431;-82
2022/04/27 05:16:38;;;;;;;24.35;16.00;;;;;;;2.34;91.62;102461.69;6187085;23;20318;-81
2022/04/27 05:19:03;;;;;;;26.77;15.30;;;;;;;2.94;91.82;102547.34;6186841;23;20075;-81
2022/04/27 05:21:29;;;;;;;29.70;16.38;;;;;;;3.03;91.63;102549.88;6185850;23;19997;-80
2022/04/27 05:23:55;;;;;;;27.02;15.93;;;;;;;2.76;91.58;102487.06;6186506;23;20015;-81
2022/04/27 05:26:21;;;;;;;26.75;16.73;;;;;;;3.32;91.48;102554.84;6186307;23;20430;-81
2022/04/27 05:34:14;;;;;;;24.00;15.48;;;;;;;3.57;91.07;102532.56;6186524;23;20505;-81
2022/04/27 05:36:40;;;;;;;30.40;17.60;;;;;;;3.90;92.31;102562.13;6185173;23;20009;-79
2022/04/27 05:39:05;;;;;;;29.95;17.13;;;;;;;4.05;91.72;102566.28;6186264;23;20055;-79
2022/04/27 05:41:31;;;;;;;27.25;16.17;;;;;;;4.15;91.57;102575.59;6186243;23;20352;-80
2022/04/27 05:44:02;;;;;;;28.88;15.88;;;;;;;4.49;91.64;102567.59;6186335;23;20323;-77
2022/04/27 05:46:28;;;;;;;27.83;16.83;;;;;;;4.90;91.88;102572.28;6186471;23;20052;-80
2022/04/27 05:48:53;;;;;;;26.98;16.42;;;;;;;6.23;88.29;102507.13;6185057;23;20005;-77
2022/04/27 05:51:19;;;;;;;26.85;16.58;;;;;;;7.09;81.13;102385.56;6184141;22;20028;-79
2022/04/27 05:53:47;;;;;;;24.58;15.15;;;;;;;9.93;74.66;102559.53;6184937;23;20008;-78
2022/04/27 05:56:13;;;;;;;21.55;13.25;;;;;;;10.11;68.25;102382.56;6184698;23;20051;-79
2022/04/27 05:58:39;;;;;;;17.63;12.18;;;;;;;12.21;64.78;102557.97;6184830;23;20001;-79
2022/04/27 06:01:04;;;;;;;20.52;12.18;;;;;;;13.18;60.88;102565.75;6184723;23;20015;-81
2022/04/27 06:03:30;;;;;;;17.65;11.15;;;;;;;14.09;57.34;102551.88;6185934;23;20489;-79
2022/04/27 06:05:55;;;;;;;18.98;11.00;;;;;;;14.60;54.01;102537.16;6185730;23;20005;-79
2022/04/27 06:08:21;;;;;;;16.67;10.60;;;;;;;15.13;53.12;102562.03;6185912;23;20087;-80
2022/04/27 06:10:46;;;;;;;16.55;10.40;;;;;;;15.13;51.13;102478.75;6185853;23;20151;-79
2022/04/27 06:13:13;;;;;;;16.65;10.13;;;;;;;16.11;49.41;102561.72;6185988;23;20005;-79
2022/04/27 06:15:38;;;;;;;14.95;10.32;;;;;;;16.78;47.89;102575.97;6186191;23;20151;-79
2022/04/27 06:18:04;;;;;;;14.35;9.90;;;;;;;17.08;46.44;102576.66;6186109;23;20001;-81
2022/04/27 06:20:29;;;;;;;15.88;10.07;;;;;;;17.20;46.47;102580.28;6185610;23;20043;-79
2022/04/27 06:22:56;;;;;;;16.52;10.70;;;;;;;17.49;45.24;102578.44;6185849;23;20001;-78
2022/04/27 06:25:22;;;;;;;15.65;9.40;;;;;;;17.81;43.93;102580.78;6185511;23;20001;-81
2022/04/27 06:27:47;;;;;;;17.45;10.48;;;;;;;17.95;43.39;102580.69;6185862;23;20008;-79
2022/04/27 06:30:13;;;;;;;13.70;9.75;;;;;;;18.34;42.13;102580.63;6185398;23;20058;-78
2022/04/27 06:32:40;;;;;;;13.70;10.10;;;;;;;18.72;41.87;102586.81;6184397;23;20016;-81
2022/04/27 06:35:06;;;;;;;14.15;9.65;;;;;;;18.56;40.11;102551.22;6184457;23;20423;-81
2022/04/27 06:37:32;;;;;;;16.33;9.52;;;;;;;18.74;40.93;102571.84;6184406;23;20001;-80
2022/04/27 06:39:57;;;;;;;15.35;9.90;;;;;;;18.97;39.30;102578.91;6184835;23;20067;-79
2022/04/27 06:42:23;;;;;;;11.73;9.43;;;;;;;19.51;39.27;102591.63;6184607;23;20023;-80
2022/04/27 06:44:48;;;;;;;12.65;9.32;;;;;;;19.45;38.74;102571.94;6185074;23;20012;-85
2022/04/27 06:47:14;;;;;;;16.00;8.68;;;;;;;19.41;37.54;102590.63;6186123;23;20140;-85
2022/04/27 06:49:39;;;;;;;15.05;8.90;;;;;;;19.43;37.64;102597.41;6185946;23;20001;-84
2022/04/27 06:52:05;;;;;;;13.95;9.02;;;;;;;19.39;37.36;102566.31;6185670;23;20423;-80
2022/04/27 06:54:31;;;;;;;15.82;9.80;;;;;;;19.20;38.13;102575.50;6185785;23;20012;-78
2022/04/27 06:56:57;;;;;;;23.33;9.48;;;;;;;19.26;38.23;102586.47;6185638;23;20372;-84
2022/04/27 06:59:22;;;;;;;15.55;9.32;;;;;;;19.68;38.02;102604.38;6185906;23;20009;-79
2022/04/27 07:01:48;;;;;;;14.57;8.88;;;;;;;19.32;38.16;102588.66;6186014;23;20009;-86
2022/04/27 07:04:13;;;;;;;13.43;8.88;;;;;;;19.48;37.41;102608.41;6186011;23;20008;-87
2022/04/27 07:06:39;;;;;;;15.73;9.40;;;;;;;19.38;37.72;102606.56;6185666;23;20018;-84
2022/04/27 07:09:08;;;;;;;15.85;10.10;;;;;;;19.33;37.45;102572.00;6184278;23;20449;-82
2022/04/27 07:11:52;;;;;;;17.70;9.48;;;;;;;20.08;39.51;102603.19;6183866;22;20339;-79
2022/04/27 07:14:21;;;;;;;14.27;9.15;;;;;;;19.89;37.29;102606.34;6184319;23;20009;-79
2022/04/27 07:16:47;;;;;;;12.63;9.30;;;;;;;17.79;38.15;102444.97;6183281;22;20450;-80
2022/04/27 07:19:12;;;;;;;15.50;8.23;;;;;;;16.40;40.82;102494.81;6184294;23;20051;-80
2022/04/27 07:21:39;;;;;;;19.35;9.35;;;;;;;15.48;43.77;102618.22;6183715;23;20411;-82
2022/04/27 07:24:05;;;;;;;13.48;9.15;;;;;;;13.89;46.19;102586.63;6184197;23;20055;-79
2022/04/27 07:26:31;;;;;;;20.08;9.60;;;;;;;13.14;49.68;102621.25;6183756;23;20084;-81
2022/04/27 07:28:57;;;;;;;13.30;8.20;;;;;;;12.60;50.03;102637.50;6185316;23;20043;-88
2022/04/27 07:31:25;;;;;;;15.35;9.20;;;;;;;11.98;53.02;102600.31;6184776;23;20005;-84
2022/04/27 07:33:51;;;;;;;14.20;9.10;;;;;;;11.60;51.57;102609.59;6185337;23;20072;-81
2022/04/27 07:36:17;;;;;;;15.95;9.25;;;;;;;11.14;52.24;102608.75;6184531;23;20439;-80
2022/04/27 07:38:42;;;;;;;14.65;9.32;;;;;;;11.03;54.82;102638.47;6184967;23;20008;-81
2022/04/27 07:41:10;;;;;;;18.48;9.60;;;;;;;10.75;56.09;102618.78;6185799;23;20005;-81
2022/04/27 07:46:09;;;;;;;17.33;9.48;;;;;;;10.61;56.95;102633.91;6159741;23;20025;-83
2022/04/27 07:48:35;;;;;;;13.23;9.07;;;;;;;9.46;56.41;102474.25;6158045;23;20029;-81
2022/04/27 07:51:02;;;;;;;11.88;7.47;;;;;;;10.54;54.79;102643.63;6157512;23;20429;-82
2022/04/27 07:53:28;;;;;;;16.15;8.38;;;;;;;10.32;54.08;102601.31;6157653;23;20061;-82
2022/04/27 07:55:53;;;;;;;12.70;8.20;;;;;;;10.73;54.28;102648.16;6157728;23;20008;-82
2022/04/27 07:58:19;;;;;;;13.10;8.63;;;;;;;10.83;56.18;102654.69;6158192;23;20340;-82
2022/04/27 08:00:44;;;;;;;13.30;9.05;;;;;;;10.97;55.51;102651.63;6157704;23;20006;-80
2022/04/27 08:03:09;;;;;;;15.38;9.45;;;;;;;10.88;54.76;102655.38;6157568;23;20426;-82
2022/04/27 08:05:35;;;;;;;14.68;10.15;;;;;;;10.62;55.18;102623.53;6157566;23;20001;-82
2022/04/27 08:08:00;;;;;;;15.55;8.63;;;;;;;10.88;54.42;102658.78;6157328;23;20005;-81
2022/04/27 08:10:26;;;;;;;18.17;8.95;;;;;;;10.85;54.43;102669.25;6157311;23;20358;-81
2022/04/27 08:12:53;;;;;;;14.60;8.65;;;;;;;10.76;54.37;102648.03;6157602;23;20056;-83
2022/04/27 08:15:21;;;;;;;17.13;8.88;;;;;;;10.86;54.07;102664.91;6157679;23;20017;-82
2022/04/27 08:17:51;;;;;;;10.50;7.15;;;;;;;10.76;53.93;102656.63;6157504;23;20446;-82
2022/04/27 08:23:06;;;;;;;11.13;5.18;;;;;;;10.44;50.37;102636.22;6157155;23;20021;-78
2022/04/27 08:25:31;;;;;;;9.38;5.30;;;;;;;10.72;50.42;102678.31;6157225;23;20052;-81
2022/04/27 08:27:56;;;;;;;11.77;6.78;;;;;;;9.94;51.01;102528.56;6156990;23;20289;-82
2022/04/27 08:30:22;;;;;;;15.60;8.25;;;;;;;10.86;51.37;102668.34;6157399;23;20078;-84
2022/04/27 08:32:47;;;;;;;13.13;6.95;;;;;;;10.76;52.30;102640.28;6157558;23;20084;-82
2022/04/27 08:35:12;;;;;;;11.13;5.93;;;;;;;10.98;51.16;102674.81;6157169;23;20332;-82
2022/04/27 08:37:37;;;;;;;14.10;6.68;;;;;;;11.08;52.13;102670.16;6157451;23;20036;-81
2022/04/27 08:40:04;;;;;;;12.90;7.38;;;;;;;11.06;50.91;102675.41;6157055;23;20006;-81
2022/04/27 08:42:29;;;;;;;13.30;8.02;;;;;;;11.00;50.90;102674.75;6130216;23;20013;-84
2022/04/27 08:44:55;;;;;;;14.75;7.68;;;;;;;10.99;51.66;102678.25;6157142;23;20013;-83
2022/04/27 08:47:23;;;;;;;14.80;7.75;;;;;;;11.06;53.41;102679.72;6155497;23;20002;-84
2022/04/27 08:49:48;;;;;;;11.93;7.57;;;;;;;11.18;52.37;102681.88;6157102;23;20064;-83
2022/04/27 08:52:18;;;;;;;14.88;7.22;;;;;;;10.87;52.41;102594.22;6156839;23;20010;-81
2022/04/27 08:54:48;;;;;;;15.90;8.27;;;;;;;11.38;52.25;102655.28;6156431;23;20001;-84
2022/04/27 08:57:13;;;;;;;12.75;7.57;;;;;;;11.37;51.87;102645.84;6156877;23;20032;-82
2022/04/27 08:59:49;;;;;;;14.00;8.23;;;;;;;11.63;50.77;102683.69;6157000;23;20001;-80
2022/04/27 09:02:30;;;;;;;14.50;8.27;;;;;;;11.36;51.60;102623.47;6156762;23;20033;-81
2022/04/27 09:05:07;;;;;;;12.07;7.40;;;;;;;11.79;49.20;102687.34;6155391;23;20013;-81
2022/04/27 09:07:45;;;;;;;12.40;7.43;;;;;;;11.84;50.22;102684.63;6156768;23;20005;-82
2022/04/27 09:10:18;;;;;;;12.80;7.30;;;;;;;11.77;50.88;102666.72;6156400;23;20096;-81
2022/04/27 09:13:05;;;;;;;15.40;7.88;;;;;;;11.89;50.08;102683.53;6157549;22;20335;-82
2022/04/27 09:15:37;;;;;;;12.70;7.63;;;;;;;11.41;49.82;102606.03;6156526;23;20014;-83
2022/04/27 09:20:59;;;;;;;13.98;8.20;;;;;;;12.06;48.77;102662.16;6156862;23;20024;-79
2022/04/27 09:23:42;;;;;;;12.43;8.35;;;;;;;12.16;50.45;102679.03;6156510;23;20369;-81
2022/04/27 09:26:33;;;;;;;15.55;8.45;;;;;;;11.94;49.16;102626.41;6156461;23;20039;-78
2022/04/27 09:28:59;;;;;;;13.02;8.45;;;;;;;12.38;49.32;102673.81;6152408;23;20065;-80
2022/04/27 09:31:31;;;;;;;13.07;8.27;;;;;;;12.52;48.26;102679.28;6157045;23;20012;-80
2022/04/27 09:34:02;;;;;;;17.83;8.48;;;;;;;12.60;48.49;102679.81;6155043;23;20021;-81
2022/04/27 09:36:28;;;;;;;15.77;8.75;;;;;;;12.61;47.03;102678.06;6156957;23;20060;-80
2022/04/27 09:38:55;;;;;;;15.45;8.18;;;;;;;12.62;45.67;102675.41;6156416;23;20002;-79
2022/04/27 09:41:37;;;;;;;15.93;8.30;;;;;;;12.65;49.00;102682.19;6156153;23;20006;-77
2022/04/27 09:44:03;;;;;;;10.13;8.45;;;;;;;12.34;46.22;102620.44;6154887;23;20084;-76
2022/04/27 09:46:28;;;;;;;12.55;8.95;;;;;;;12.75;47.33;102665.34;6154238;23;20091;-77
2022/04/27 09:49:13;;;;;;;13.70;8.65;;;;;;;13.01;48.56;102690.16;6156897;23;20006;-78
2022/04/27 09:52:01;;;;;;;13.25;8.02;;;;;;;13.12;47.49;102687.94;6184637;22;20017;-80
2022/04/27 09:54:34;;;;;;;14.15;8.48;;;;;;;13.06;47.19;102688.19;6186216;23;20008;-81
2022/04/27 09:57:02;;;;;;;16.45;8.63;;;;;;;12.88;45.88;102686.38;6186029;23;20001;-77
2022/04/27 09:59:30;;;;;;;12.48;8.32;;;;;;;12.48;46.21;102663.91;6186297;23;20028;-79
2022/04/27 10:01:58;;;;;;;14.93;8.65;;;;;;;12.10;46.66;102627.50;6185823;23;20072;-79
2022/04/27 10:04:28;;;;;;;14.50;9.07;;;;;;;12.40;46.58;102678.94;6185531;23;20062;-81
2022/04/27 10:06:56;;;;;;;15.07;8.50;;;;;;;12.29;48.46;102675.06;6184398;23;20079;-77
2022/04/27 10:09:22;;;;;;;13.43;8.85;;;;;;;11.97;46.84;102631.47;6185949;23;20016;-79
2022/04/27 10:11:48;;;;;;;15.77;8.98;;;;;;;12.22;46.83;102671.03;6186175;23;20005;-82
2022/04/27 10:14:13;;;;;;;15.35;9.15;;;;;;;12.49;47.34;102679.41;6186009;23;20012;-79
2022/04/27 10:16:38;;;;;;;17.40;9.73;;;;;;;12.68;48.35;102682.06;6185605;23;20101;-78
2022/04/27 10:19:09;;;;;;;17.50;9.05;;;;;;;12.80;46.59;102678.97;6186046;23;20043;-76
2022/04/27 10:21:39;;;;;;;19.35;9.52;;;;;;;12.84;45.36;102682.25;6186458;23;20079;-79
2022/04/27 10:24:09;;;;;;;15.25;9.20;;;;;;;12.95;45.46;102674.00;6185901;23;20009;-77
2022/04/27 10:26:34;;;;;;;13.00;9.70;;;;;;;12.74;44.40;102635.16;6185755;23;20008;-76
2022/04/27 10:29:05;;;;;;;13.20;8.85;;;;;;;12.74;45.99;102616.16;6186007;23;20005;-77
2022/04/27 10:31:43;;;;;;;15.30;9.43;;;;;;;13.27;46.25;102676.06;6185785;23;20009;-77
2022/04/27 10:34:17;;;;;;;13.80;9.73;;;;;;;13.45;45.56;102670.03;6184041;23;20005;-80
2022/04/27 10:36:43;;;;;;;15.10;10.25;;;;;;;13.30;43.73;102634.41;6186055;23;20005;-79
2022/04/27 10:39:12;;;;;;;15.38;9.73;;;;;;;13.77;45.93;102659.94;6185881;23;20418;-79
2022/04/27 10:41:41;;;;;;;15.05;9.93;;;;;;;14.00;43.84;102659.66;6185763;23;20064;-79
2022/04/27 10:44:08;;;;;;;15.15;9.27;;;;;;;13.96;45.69;102610.53;6185954;23;20010;-78
2022/04/27 10:46:41;;;;;;;14.90;9.73;;;;;;;14.33;42.26;102636.38;6186188;23;20039;-78
2022/04/27 10:49:28;;;;;;;13.73;9.88;;;;;;;14.37;43.30;102625.84;6185750;23;20005;-78
2022/04/27 10:52:04;;;;;;;14.63;9.93;;;;;;;14.48;44.41;102658.22;6185487;23;20016;-79
2022/04/27 10:54:34;;;;;;;16.10;10.27;;;;;;;14.32;43.55;102659.84;6185863;23;20013;-78
2022/04/27 10:57:15;;;;;;;15.27;9.97;;;;;;;14.25;44.00;102664.50;6185663;23;20001;-78
2022/04/27 10:59:56;;;;;;;14.40;9.27;;;;;;;14.06;45.79;102649.00;6186063;23;20008;-78
2022/04/27 11:02:30;;;;;;;18.67;9.57;;;;;;;13.95;44.01;102659.03;6185722;23;20095;-78
2022/04/27 11:04:57;;;;;;;15.02;9.93;;;;;;;13.83;45.75;102658.78;6185406;23;20032;-80
2022/04/27 11:07:37;;;;;;;13.88;9.38;;;;;;;13.53;46.85;102598.78;6185706;23;20005;-79
2022/04/27 11:10:28;;;;;;;16.13;9.77;;;;;;;13.85;46.18;102651.75;6183789;23;20012;-77
2022/04/27 11:12:56;;;;;;;14.77;9.80;;;;;;;13.60;45.06;102665.06;6185367;23;20035;-80
2022/04/27 11:15:25;;;;;;;13.38;10.02;;;;;;;13.32;43.96;102657.69;6185169;23;20009;-80
2022/04/27 11:17:55;;;;;;;16.10;10.65;;;;;;;13.51;45.04;102663.72;6185653;23;20001;-75
2022/04/27 11:20:27;;;;;;;14.52;10.13;;;;;;;13.56;46.96;102586.47;6185619;23;20016;-79
2022/04/27 11:22:53;;;;;;;19.33;10.95;;;;;;;14.20;45.49;102630.13;6185557;23;20009;-80
2022/04/27 11:25:23;;;;;;;14.93;10.23;;;;;;;14.68;45.02;102659.81;6185745;23;20300;-78
2022/04/27 11:27:48;;;;;;;15.80;11.65;;;;;;;14.82;44.30;102656.47;6185154;23;20002;-77
2022/04/27 11:30:14;;;;;;;16.95;10.82;;;;;;;14.59;42.92;102632.50;6185547;23;20005;-77
2022/04/27 11:32:43;;;;;;;16.33;10.35;;;;;;;14.67;42.39;102659.88;6185771;23;20001;-79
2022/04/27 11:35:09;;;;;;;15.20;10.25;;;;;;;14.59;42.55;102662.88;6185585;23;20043;-77
2022/04/27 11:37:37;;;;;;;13.65;10.07;;;;;;;14.46;42.27;102660.06;6185752;23;20084;-78
2022/04/27 11:40:12;;;;;;;18.27;9.50;;;;;;;14.31;44.63;102663.38;6185704;23;20028;-77
2022/04/27 11:42:42;;;;;;;15.70;10.30;;;;;;;13.79;44.47;102624.34;6185509;23;20024;-76